Time;durP1;ratioP1;P1;durP2;ratioP2;P2;SDS_P1;SDS_P2;PMS_P1;PMS_P2;Temp;Humidity;BMP_temperature;BMP_pressure;BME280_temperature;BME280_humidity;BME280_pressure;Samples;Min_cycle;Max_cycle;Signal;HPM_P1;HPM_P2
2024/04/16 00:01:46;;;;;;;2.20;0.80;;;12.00;49.00;;;;;;5491647;26;20459;-71
2024/04/16 00:04:17;;;;;;;2.10;0.60;;;11.90;49.40;;;;;;5491238;26;20463;-71
2024/04/16 00:06:49;;;;;;;3.40;0.63;;;11.90;47.50;;;;;;5491385;26;20459;-71
2024/04/16 00:09:17;;;;;;;2.00;0.60;;;11.80;46.30;;;;;;5491446;26;20930;-71
2024/04/16 00:11:45;;;;;;;1.80;0.63;;;11.70;46.60;;;;;;5491629;26;20241;-71
2024/04/16 00:14:14;;;;;;;1.90;0.60;;;11.70;47.40;;;;;;5492433;26;20514;-71
2024/04/16 00:16:44;;;;;;;1.80;0.60;;;11.70;47.50;;;;;;5491539;26;21017;-71
2024/04/16 00:19:12;;;;;;;2.40;0.67;;;11.60;48.00;;;;;;5491458;26;20605;-71
2024/04/16 00:21:40;;;;;;;2.25;0.70;;;11.60;47.20;;;;;;5491447;26;20451;-71
2024/04/16 00:24:11;;;;;;;1.90;0.70;;;11.60;47.10;;;;;;5491621;26;20318;-71
2024/04/16 00:26:39;;;;;;;1.80;0.60;;;11.60;46.90;;;;;;5491485;26;20551;-71
2024/04/16 00:29:09;;;;;;;2.55;0.60;;;11.60;47.10;;;;;;5491647;26;20385;-71
2024/04/16 00:31:38;;;;;;;1.83;0.60;;;11.60;46.40;;;;;;5491456;26;20249;-71
2024/04/16 00:34:12;;;;;;;1.80;0.60;;;11.50;46.20;;;;;;5491531;26;20261;-71
2024/04/16 00:36:38;;;;;;;2.00;0.70;;;11.50;45.90;;;;;;5490926;26;20455;-71
2024/04/16 00:39:12;;;;;;;1.80;0.60;;;11.50;46.10;;;;;;5491000;26;20314;-71
2024/04/16 00:41:40;;;;;;;1.90;0.70;;;11.50;45.50;;;;;;5491434;26;20805;-71
2024/04/16 00:44:09;;;;;;;2.13;0.68;;;11.50;45.20;;;;;;5491094;26;20614;-71
2024/04/16 00:46:37;;;;;;;1.90;0.73;;;11.40;45.40;;;;;;5490813;26;20215;-71
2024/04/16 00:49:09;;;;;;;1.90;0.68;;;11.40;45.20;;;;;;5490877;26;20555;-71
2024/04/16 00:51:39;;;;;;;2.95;0.70;;;11.40;44.70;;;;;;5491518;26;20219;-71
2024/04/16 00:54:12;;;;;;;1.90;0.60;;;11.40;45.00;;;;;;5491599;26;20218;-71
2024/04/16 00:56:42;;;;;;;1.90;0.60;;;11.40;45.00;;;;;;5490934;26;20218;-71
2024/04/16 00:59:13;;;;;;;2.45;0.75;;;11.30;44.90;;;;;;5490509;26;20218;-71
2024/04/16 01:01:43;;;;;;;2.60;0.82;;;11.30;44.50;;;;;;5490771;26;20211;-71
2024/04/16 01:04:16;;;;;;;1.90;0.63;;;11.20;44.70;;;;;;5490781;26;20214;-72
2024/04/16 01:06:48;;;;;;;2.17;0.90;;;11.20;44.70;;;;;;5489442;26;20273;-71
2024/04/16 01:09:19;;;;;;;2.10;0.98;;;11.10;44.50;;;;;;5490791;26;20214;-71
2024/04/16 01:11:46;;;;;;;2.72;0.80;;;11.10;44.80;;;;;;5490855;26;20214;-71
2024/04/16 01:14:18;;;;;;;2.00;0.80;;;11.10;45.30;;;;;;5490483;26;20621;-71
2024/04/16 01:16:45;;;;;;;1.80;0.60;;;11.10;45.20;;;;;;5490777;26;20214;-71
2024/04/16 01:19:16;;;;;;;3.03;1.05;;;11.00;45.40;;;;;;5490606;26;20214;-71
2024/04/16 01:21:42;;;;;;;2.05;0.68;;;11.00;45.50;;;;;;5490409;26;20268;-71
2024/04/16 01:24:13;;;;;;;4.13;0.80;;;11.00;45.50;;;;;;5490334;26;20218;-71
2024/04/16 01:26:42;;;;;;;3.95;1.02;;;10.90;45.70;;;;;;5490097;26;20226;-71
2024/04/16 01:29:14;;;;;;;2.00;0.63;;;10.90;45.50;;;;;;5490342;26;20266;-71
2024/04/16 01:31:40;;;;;;;2.10;0.88;;;10.80;45.90;;;;;;5489437;26;20230;-71
2024/04/16 01:34:13;;;;;;;4.05;0.70;;;10.80;45.80;;;;;;5489725;26;20289;-71
2024/04/16 01:36:40;;;;;;;2.05;0.70;;;10.70;46.10;;;;;;5490465;26;20222;-71
2024/04/16 01:39:14;;;;;;;1.80;0.60;;;10.70;46.60;;;;;;5489905;26;20306;-71
2024/04/16 01:41:42;;;;;;;2.53;0.98;;;10.70;47.00;;;;;;5489690;26;20278;-70
2024/04/16 01:44:17;;;;;;;2.40;1.20;;;10.70;47.10;;;;;;5489919;26;20218;-71
2024/04/16 01:46:46;;;;;;;2.85;0.70;;;10.60;47.20;;;;;;5489833;26;20247;-71
2024/04/16 01:49:20;;;;;;;2.70;1.95;;;10.60;47.70;;;;;;5489380;26;20624;-71
2024/04/16 01:51:51;;;;;;;2.80;1.02;;;10.60;47.30;;;;;;5489903;26;20285;-71
2024/04/16 01:54:23;;;;;;;2.58;0.90;;;10.50;47.70;;;;;;5489819;26;20700;-70
2024/04/16 01:56:51;;;;;;;3.00;0.80;;;10.50;47.80;;;;;;5489822;26;20716;-70
2024/04/16 01:59:34;;;;;;;2.03;0.68;;;10.40;47.70;;;;;;5489958;26;20789;-71
2024/04/16 02:02:07;;;;;;;2.28;0.70;;;10.40;48.20;;;;;;5490109;26;20611;-71
2024/04/16 02:04:36;;;;;;;2.50;0.73;;;10.40;48.50;;;;;;5489712;26;20314;-70
2024/04/16 02:07:07;;;;;;;1.90;0.80;;;10.40;48.60;;;;;;5489661;26;20286;-70
2024/04/16 02:09:39;;;;;;;2.17;0.73;;;10.30;48.80;;;;;;5489570;26;20214;-71
2024/04/16 02:12:06;;;;;;;2.00;0.80;;;10.30;49.20;;;;;;5453208;26;20249;-71
2024/04/16 02:14:37;;;;;;;3.60;0.88;;;10.30;49.20;;;;;;5453436;26;20219;-70
2024/04/16 02:17:06;;;;;;;2.50;0.90;;;10.20;49.70;;;;;;5454582;26;20697;-70
2024/04/16 02:19:38;;;;;;;1.98;0.90;;;10.10;50.20;;;;;;5458727;26;20261;-71
2024/04/16 02:22:05;;;;;;;3.00;1.00;;;10.00;50.20;;;;;;5492741;26;20354;-70
2024/04/16 02:24:34;;;;;;;2.00;0.70;;;10.00;50.50;;;;;;5492845;26;20306;-70
2024/04/16 02:27:03;;;;;;;2.63;0.90;;;9.90;52.00;;;;;;5492843;26;20253;-71
2024/04/16 02:29:37;;;;;;;2.00;0.70;;;9.90;52.90;;;;;;5492292;26;20245;-70
2024/04/16 02:32:04;;;;;;;3.05;0.88;;;9.80;53.40;;;;;;5490536;26;20589;-71
2024/04/16 02:34:33;;;;;;;3.90;1.08;;;9.80;53.40;;;;;;5489959;26;20234;-71
2024/04/16 02:37:00;;;;;;;1.90;0.70;;;9.80;53.40;;;;;;5492829;26;20218;-70
2024/04/16 02:39:33;;;;;;;2.30;0.70;;;9.80;53.60;;;;;;5492372;26;20345;-70
2024/04/16 02:42:05;;;;;;;2.25;0.65;;;9.70;53.50;;;;;;5492316;26;20277;-71
2024/04/16 02:44:35;;;;;;;1.80;0.60;;;9.70;53.70;;;;;;5493657;26;20214;-70
2024/04/16 02:47:03;;;;;;;2.05;0.70;;;9.60;53.30;;;;;;5492924;26;20256;-70
2024/04/16 02:49:33;;;;;;;3.33;1.70;;;9.60;53.80;;;;;;5492456;26;20222;-70
2024/04/16 02:52:01;;;;;;;2.88;1.60;;;9.60;53.80;;;;;;5492042;26;20226;-71
2024/04/16 02:54:35;;;;;;;2.65;1.10;;;9.50;53.80;;;;;;5492681;26;20219;-70
2024/04/16 02:57:04;;;;;;;1.85;0.70;;;9.50;54.00;;;;;;5492770;26;20218;-70
2024/04/16 02:59:36;;;;;;;1.85;0.60;;;9.40;53.60;;;;;;5492423;26;20530;-70
2024/04/16 03:02:04;;;;;;;1.90;0.70;;;9.40;53.90;;;;;;5491930;26;20257;-70
2024/04/16 03:04:33;;;;;;;2.03;0.73;;;9.40;54.40;;;;;;5492401;26;20258;-70
2024/04/16 03:07:01;;;;;;;2.05;0.85;;;9.30;54.50;;;;;;5492405;26;20226;-71
2024/04/16 03:09:31;;;;;;;2.53;1.00;;;9.30;54.10;;;;;;5492157;26;20552;-70
2024/04/16 03:11:57;;;;;;;2.03;0.77;;;9.30;54.00;;;;;;5491746;26;20724;-70
2024/04/16 03:14:28;;;;;;;3.97;0.90;;;9.20;54.10;;;;;;5492393;26;20218;-71
2024/04/16 03:16:59;;;;;;;1.90;0.68;;;9.10;54.10;;;;;;5492131;26;20305;-70
2024/04/16 03:19:30;;;;;;;2.30;0.82;;;9.10;53.80;;;;;;5492028;26;20215;-70
2024/04/16 03:22:08;;;;;;;2.85;0.80;;;9.10;54.30;;;;;;5491770;26;20226;-71
2024/04/16 03:24:40;;;;;;;2.60;0.73;;;9.00;54.00;;;;;;5491650;26;20226;-71
2024/04/16 03:27:07;;;;;;;4.55;0.90;;;8.90;54.30;;;;;;5492037;26;20210;-71
2024/04/16 03:29:36;;;;;;;2.45;1.00;;;8.90;54.80;;;;;;5491036;26;20219;-71
2024/04/16 03:32:05;;;;;;;1.90;0.60;;;8.80;55.30;;;;;;5491443;26;20593;-71
2024/04/16 03:34:34;;;;;;;2.00;0.65;;;8.80;55.40;;;;;;5491939;26;20211;-70
2024/04/16 03:37:04;;;;;;;1.80;0.70;;;8.80;55.30;;;;;;5491956;26;20218;-71
2024/04/16 03:39:34;;;;;;;1.90;0.68;;;8.70;55.70;;;;;;5491991;26;20276;-71
2024/04/16 03:42:04;;;;;;;2.20;0.80;;;8.80;56.60;;;;;;5491254;26;20226;-71
2024/04/16 03:44:38;;;;;;;2.03;0.75;;;8.70;56.40;;;;;;5491359;26;20685;-71
2024/04/16 03:47:08;;;;;;;4.25;1.08;;;8.60;56.50;;;;;;5491643;26;20256;-71
2024/04/16 03:49:41;;;;;;;2.20;0.80;;;8.60;56.70;;;;;;5491136;26;20724;-71
2024/04/16 03:52:12;;;;;;;4.40;0.88;;;8.60;56.80;;;;;;5491207;26;20226;-71
2024/04/16 03:54:44;;;;;;;2.40;0.70;;;8.60;57.20;;;;;;5491486;26;20214;-71
2024/04/16 03:57:11;;;;;;;2.30;0.70;;;8.60;56.90;;;;;;5492100;26;20218;-71
2024/04/16 04:02:26;;;;;;;1.80;0.60;;;8.60;56.70;;;;;;5492285;26;20222;-70
2024/04/16 04:04:58;;;;;;;1.80;0.60;;;8.60;57.10;;;;;;5490176;26;20256;-70
2024/04/16 04:07:27;;;;;;;1.90;0.70;;;8.60;57.60;;;;;;5491279;26;20223;-71
2024/04/16 04:09:56;;;;;;;2.20;0.80;;;8.50;57.30;;;;;;5490603;26;20226;-71
2024/04/16 04:12:30;;;;;;;3.45;1.05;;;8.50;58.00;;;;;;5490740;26;20240;-71
2024/04/16 04:14:58;;;;;;;3.05;1.10;;;8.50;57.70;;;;;;5491438;26;20261;-71
2024/04/16 04:17:32;;;;;;;1.90;0.75;;;8.40;58.30;;;;;;5491155;26;20215;-71
2024/04/16 04:20:04;;;;;;;1.80;0.70;;;8.40;58.50;;;;;;5491483;26;20214;-71
2024/04/16 04:22:38;;;;;;;2.13;0.80;;;8.40;58.20;;;;;;5490705;26;20230;-71
2024/04/16 04:25:10;;;;;;;2.00;0.70;;;8.40;57.80;;;;;;5490962;26;20215;-71
2024/04/16 04:27:43;;;;;;;1.80;0.68;;;8.30;58.00;;;;;;5491056;26;20545;-71
2024/04/16 04:30:10;;;;;;;2.08;0.70;;;8.30;58.80;;;;;;5490724;26;20265;-71
2024/04/16 04:32:59;;;;;;;2.45;1.05;;;8.20;59.10;;;;;;5491224;26;20296;-71
2024/04/16 04:35:27;;;;;;;4.32;1.10;;;8.20;59.20;;;;;;5490934;26;20215;-71
2024/04/16 04:38:01;;;;;;;1.80;0.60;;;8.10;60.00;;;;;;5490816;26;20249;-71
2024/04/16 04:40:32;;;;;;;1.90;0.63;;;8.10;59.50;;;;;;5489031;26;20343;-71
2024/04/16 04:43:01;;;;;;;2.10;0.60;;;8.10;60.20;;;;;;5490947;26;20215;-71
2024/04/16 04:45:30;;;;;;;3.55;1.02;;;8.10;59.70;;;;;;5490257;26;20312;-71
2024/04/16 04:48:02;;;;;;;2.10;0.70;;;8.10;59.50;;;;;;5490672;26;20214;-71
2024/04/16 04:50:30;;;;;;;1.98;0.70;;;8.10;59.40;;;;;;5490568;26;20261;-71
2024/04/16 04:53:02;;;;;;;1.90;0.70;;;8.10;59.90;;;;;;5490412;26;20230;-71
2024/04/16 04:55:31;;;;;;;1.90;0.70;;;8.10;59.70;;;;;;5489515;26;20277;-71
2024/04/16 04:58:05;;;;;;;2.13;0.85;;;8.00;59.10;;;;;;5490135;26;20218;-71
2024/04/16 05:00:37;;;;;;;1.90;0.77;;;8.00;59.70;;;;;;5490422;26;20214;-70
2024/04/16 05:03:09;;;;;;;2.05;0.63;;;7.90;59.80;;;;;;5489331;26;20318;-71
2024/04/16 05:05:40;;;;;;;2.90;0.80;;;7.90;60.30;;;;;;5487380;26;20246;-71
2024/04/16 05:08:09;;;;;;;2.00;0.80;;;7.90;60.50;;;;;;5489516;26;20226;-71
2024/04/16 05:10:36;;;;;;;2.17;0.93;;;7.90;61.10;;;;;;5489499;26;20223;-70
2024/04/16 05:13:07;;;;;;;2.22;1.00;;;7.90;61.80;;;;;;5489865;26;20318;-71
2024/04/16 05:15:33;;;;;;;2.10;0.80;;;7.90;62.60;;;;;;5489910;26;20245;-70
2024/04/16 05:18:03;;;;;;;2.30;0.70;;;7.90;61.60;;;;;;5488985;26;20247;-70
2024/04/16 05:20:32;;;;;;;2.67;0.90;;;7.90;61.10;;;;;;5485361;26;20222;-71
2024/04/16 05:23:02;;;;;;;3.05;1.52;;;7.80;60.60;;;;;;5489348;26;20265;-71
2024/04/16 05:25:31;;;;;;;2.80;1.10;;;7.60;62.10;;;;;;5489797;26;20214;-70
2024/04/16 05:28:00;;;;;;;4.43;2.00;;;7.60;60.80;;;;;;5488541;26;20528;-70
2024/04/16 05:30:26;;;;;;;3.67;1.50;;;7.60;63.00;;;;;;5488829;26;20218;-70
2024/04/16 05:32:55;;;;;;;2.50;1.00;;;7.60;61.50;;;;;;5488823;26;20256;-70
2024/04/16 05:35:22;;;;;;;2.20;1.08;;;7.60;61.80;;;;;;5488881;26;20252;-70
2024/04/16 05:37:53;;;;;;;1.90;0.70;;;7.50;62.70;;;;;;5488939;26;20211;-70
2024/04/16 05:40:20;;;;;;;1.92;0.70;;;7.60;62.90;;;;;;5488251;26;20808;-71
2024/04/16 05:42:49;;;;;;;2.30;0.90;;;7.40;62.40;;;;;;5488798;26;20305;-71
2024/04/16 05:45:16;;;;;;;2.25;0.90;;;7.40;62.80;;;;;;5485761;26;20230;-71
2024/04/16 05:47:45;;;;;;;1.90;0.65;;;7.30;63.20;;;;;;5487573;26;20218;-70
2024/04/16 05:50:12;;;;;;;3.08;0.90;;;7.30;64.10;;;;;;5487681;26;20226;-71
2024/04/16 05:52:41;;;;;;;2.75;1.10;;;7.30;65.00;;;;;;5486827;26;20380;-71
2024/04/16 05:55:09;;;;;;;3.63;1.60;;;7.40;66.20;;;;;;5487773;26;20227;-70
2024/04/16 05:57:38;;;;;;;4.80;1.40;;;7.50;65.30;;;;;;5488338;26;20226;-70
2024/04/16 06:00:05;;;;;;;2.78;0.80;;;7.60;67.30;;;;;;5487631;26;20230;-71
2024/04/16 06:02:34;;;;;;;3.50;0.70;;;7.60;67.60;;;;;;5487939;26;20306;-71
2024/04/16 06:05:00;;;;;;;2.22;0.80;;;7.80;66.50;;;;;;5487557;26;20273;-71
2024/04/16 06:07:28;;;;;;;1.90;0.60;;;7.80;65.30;;;;;;5477153;26;20237;-71
2024/04/16 06:09:55;;;;;;;1.70;0.50;;;7.90;64.10;;;;;;5488115;26;20257;-71
2024/04/16 06:12:35;;;;;;;3.25;0.80;;;8.00;64.10;;;;;;5483195;26;20280;-70
2024/04/16 06:15:01;;;;;;;1.80;0.60;;;8.10;64.50;;;;;;5487760;26;20249;-71
2024/04/16 06:17:30;;;;;;;1.80;0.60;;;8.10;64.10;;;;;;5473108;26;20231;-71
2024/04/16 06:19:56;;;;;;;3.65;0.90;;;8.10;63.40;;;;;;5450941;26;20448;-70
2024/04/16 06:22:25;;;;;;;2.13;0.68;;;8.00;62.70;;;;;;5467780;26;20276;-70
2024/04/16 06:24:51;;;;;;;4.85;0.90;;;8.10;62.90;;;;;;5487879;26;20672;-71
2024/04/16 06:27:20;;;;;;;2.20;0.80;;;8.10;61.60;;;;;;5487789;26;20218;-70
2024/04/16 06:29:48;;;;;;;3.05;1.13;;;8.10;63.20;;;;;;5486491;26;20276;-71
2024/04/16 06:32:17;;;;;;;3.83;1.95;;;8.10;63.30;;;;;;5487567;26;20218;-71
2024/04/16 06:34:43;;;;;;;2.35;1.00;;;8.10;63.50;;;;;;5486534;26;20230;-70
2024/04/16 06:37:11;;;;;;;2.20;0.80;;;8.20;63.40;;;;;;5487548;26;20608;-70
2024/04/16 06:39:39;;;;;;;3.28;0.70;;;8.30;62.20;;;;;;5486783;26;20992;-70
2024/04/16 06:42:08;;;;;;;4.60;0.93;;;8.30;62.90;;;;;;5486580;26;20261;-71
2024/04/16 06:44:34;;;;;;;3.10;0.70;;;8.30;60.70;;;;;;5485862;26;20214;-71
2024/04/16 06:47:06;;;;;;;2.58;0.93;;;8.30;60.50;;;;;;5487605;26;20230;-71
2024/04/16 06:49:32;;;;;;;2.60;1.00;;;8.30;61.70;;;;;;5486728;26;20273;-70
2024/04/16 06:52:00;;;;;;;2.00;0.75;;;8.40;61.30;;;;;;5488369;26;20214;-70
2024/04/16 06:54:26;;;;;;;2.30;0.70;;;8.40;60.80;;;;;;5488137;26;20253;-70
2024/04/16 06:56:55;;;;;;;3.45;0.80;;;8.30;61.70;;;;;;5488087;26;20219;-70
2024/04/16 06:59:21;;;;;;;2.20;0.95;;;8.40;60.80;;;;;;5486273;26;20332;-70
2024/04/16 07:01:49;;;;;;;3.03;0.90;;;8.50;61.20;;;;;;5486437;26;20673;-70
2024/04/16 07:04:18;;;;;;;4.10;1.00;;;8.50;60.30;;;;;;5489506;26;20462;-70
2024/04/16 07:06:47;;;;;;;2.13;0.80;;;8.60;59.90;;;;;;5491289;26;20230;-70
2024/04/16 07:09:13;;;;;;;2.25;0.70;;;8.60;59.70;;;;;;5491898;26;20281;-71
2024/04/16 07:11:42;;;;;;;2.20;0.70;;;8.70;62.00;;;;;;5491257;26;20222;-70
2024/04/16 07:14:08;;;;;;;2.13;0.80;;;8.80;59.80;;;;;;5491448;26;20218;-70
2024/04/16 07:16:36;;;;;;;2.23;0.70;;;8.80;59.30;;;;;;5491054;26;20217;-71
2024/04/16 07:19:02;;;;;;;3.25;0.80;;;8.80;58.40;;;;;;5491021;26;20968;-70
2024/04/16 07:21:33;;;;;;;2.00;0.90;;;8.90;59.60;;;;;;5491314;26;20261;-70
2024/04/16 07:23:59;;;;;;;5.07;1.20;;;8.90;60.40;;;;;;5491727;26;20458;-70
2024/04/16 07:26:28;;;;;;;2.90;1.10;;;9.00;58.70;;;;;;5492063;26;20302;-71
2024/04/16 07:28:54;;;;;;;2.30;1.20;;;9.00;58.90;;;;;;5491379;26;20245;-70
2024/04/16 07:31:23;;;;;;;5.85;2.63;;;9.00;59.20;;;;;;5490991;26;20264;-71
2024/04/16 07:33:49;;;;;;;3.85;1.35;;;9.10;60.30;;;;;;5491420;26;20281;-71
2024/04/16 07:36:17;;;;;;;2.13;0.77;;;9.20;60.70;;;;;;5491315;26;20226;-70
2024/04/16 07:38:47;;;;;;;2.53;1.00;;;9.30;58.40;;;;;;5491329;26;20503;-70
2024/04/16 07:41:16;;;;;;;2.85;1.17;;;9.40;58.30;;;;;;5491627;26;20215;-70
2024/04/16 07:43:41;;;;;;;2.78;1.38;;;9.40;59.50;;;;;;5491416;26;20214;-71
2024/04/16 07:46:12;;;;;;;2.20;0.80;;;9.50;58.40;;;;;;5491229;26;20214;-70
2024/04/16 07:48:38;;;;;;;2.83;1.00;;;9.70;58.60;;;;;;5491699;26;20522;-71
2024/04/16 07:51:07;;;;;;;2.53;0.83;;;9.80;58.10;;;;;;5490723;26;20222;-71
2024/04/16 07:53:33;;;;;;;2.00;0.90;;;10.00;56.00;;;;;;5491012;26;20455;-70
2024/04/16 07:56:04;;;;;;;1.90;0.80;;;10.10;55.50;;;;;;5491295;26;20322;-71
2024/04/16 07:58:30;;;;;;;3.05;0.80;;;10.20;55.20;;;;;;5491396;26;20511;-70
2024/04/16 08:00:59;;;;;;;2.20;1.10;;;10.30;55.30;;;;;;5490957;26;20218;-70
2024/04/16 08:03:24;;;;;;;3.35;0.98;;;10.40;54.60;;;;;;5491461;26;20945;-71
2024/04/16 08:05:54;;;;;;;2.73;0.90;;;10.70;55.60;;;;;;5490641;26;20234;-71
2024/04/16 08:08:20;;;;;;;2.50;0.88;;;11.10;54.70;;;;;;5490937;26;20565;-71
2024/04/16 08:10:49;;;;;;;2.67;0.90;;;11.30;53.20;;;;;;5490664;26;20561;-71
2024/04/16 08:13:17;;;;;;;2.22;0.85;;;11.50;53.70;;;;;;5490617;26;20261;-71
2024/04/16 08:15:47;;;;;;;2.60;0.88;;;11.80;53.70;;;;;;5490484;26;20256;-71
2024/04/16 08:18:13;;;;;;;2.75;1.00;;;12.30;52.60;;;;;;5491514;26;20214;-71
2024/04/16 08:20:42;;;;;;;2.77;0.90;;;12.50;51.10;;;;;;5490684;26;20270;-71
2024/04/16 08:23:08;;;;;;;2.77;1.00;;;12.90;50.50;;;;;;5490228;26;20974;-71
2024/04/16 08:25:36;;;;;;;2.50;1.00;;;13.50;48.90;;;;;;5490970;26;20489;-71
2024/04/16 08:28:02;;;;;;;2.20;0.90;;;13.80;46.30;;;;;;5491081;26;20496;-71
2024/04/16 08:30:33;;;;;;;3.70;1.17;;;14.00;45.50;;;;;;5490554;26;20825;-71
2024/04/16 08:32:59;;;;;;;2.63;0.70;;;14.30;44.00;;;;;;5490396;26;20459;-71
2024/04/16 08:35:31;;;;;;;3.10;1.00;;;14.70;44.20;;;;;;5490310;26;20854;-71
2024/04/16 08:37:57;;;;;;;2.77;1.27;;;15.10;42.60;;;;;;5490547;26;20455;-71
2024/04/16 08:40:26;;;;;;;3.87;1.10;;;15.60;42.70;;;;;;5490394;26;21016;-71
2024/04/16 08:42:52;;;;;;;2.33;1.03;;;16.10;41.10;;;;;;5490839;26;20957;-71
2024/04/16 08:45:23;;;;;;;3.03;1.00;;;16.40;39.20;;;;;;5490338;26;20486;-70
2024/04/16 08:47:53;;;;;;;4.30;1.20;;;16.60;39.40;;;;;;5490675;26;20960;-70
2024/04/16 08:50:23;;;;;;;2.17;0.83;;;16.70;36.30;;;;;;5490749;26;20523;-70
2024/04/16 08:52:50;;;;;;;3.57;0.90;;;16.90;36.20;;;;;;5489975;26;20451;-71
2024/04/16 08:55:21;;;;;;;4.50;1.30;;;17.20;36.60;;;;;;5490306;26;20574;-71
2024/04/16 08:57:49;;;;;;;3.67;1.10;;;17.50;35.20;;;;;;5490289;26;20500;-71
2024/04/16 09:00:18;;;;;;;5.20;0.93;;;17.70;32.70;;;;;;5490411;26;20456;-71
2024/04/16 09:02:44;;;;;;;2.57;0.80;;;18.10;32.50;;;;;;5490263;26;20908;-71
2024/04/16 09:05:16;;;;;;;4.63;0.80;;;18.40;32.20;;;;;;5489881;26;20470;-71
2024/04/16 09:07:42;;;;;;;3.17;1.10;;;18.40;29.50;;;;;;5490295;26;21057;-71
2024/04/16 09:10:15;;;;;;;5.67;1.10;;;18.20;28.00;;;;;;5490578;26;20441;-71
2024/04/16 09:12:43;;;;;;;4.30;1.00;;;17.70;28.70;;;;;;5489846;26;20599;-71
2024/04/16 09:15:13;;;;;;;3.93;1.27;;;17.20;29.10;;;;;;5489334;26;20518;-71
2024/04/16 09:17:49;;;;;;;3.90;0.93;;;16.80;28.90;;;;;;5490003;26;20553;-72
2024/04/16 09:20:22;;;;;;;3.40;1.37;;;16.60;30.80;;;;;;5490406;26;20859;-71
2024/04/16 09:22:50;;;;;;;3.13;0.80;;;16.70;30.00;;;;;;5489954;26;20447;-71
2024/04/16 09:25:19;;;;;;;4.53;1.30;;;16.80;31.10;;;;;;5490675;26;20459;-70
2024/04/16 09:27:49;;;;;;;2.60;0.80;;;17.00;29.90;;;;;;5488839;26;20448;-71
2024/04/16 09:30:18;;;;;;;2.77;1.00;;;17.30;31.80;;;;;;5489488;26;20452;-71
2024/04/16 09:32:46;;;;;;;2.73;1.10;;;17.50;30.20;;;;;;5489448;26;20460;-71
2024/04/16 09:35:19;;;;;;;1.90;0.67;;;17.70;28.80;;;;;;5489867;26;20499;-71
2024/04/16 09:37:47;;;;;;;2.00;0.70;;;17.70;28.90;;;;;;5489853;26;20501;-71
2024/04/16 09:40:17;;;;;;;3.30;0.97;;;17.80;28.80;;;;;;5488905;26;20456;-71
2024/04/16 09:42:43;;;;;;;3.50;0.93;;;17.70;27.70;;;;;;5489494;26;20971;-71
2024/04/16 09:45:12;;;;;;;3.90;1.00;;;17.70;29.00;;;;;;5489911;26;20450;-71
2024/04/16 09:47:39;;;;;;;2.77;0.87;;;17.90;28.80;;;;;;5489621;26;20497;-70
2024/04/16 09:50:14;;;;;;;3.83;0.90;;;18.10;29.20;;;;;;5489290;26;20448;-71
2024/04/16 09:52:40;;;;;;;3.40;1.23;;;18.10;28.00;;;;;;5489233;26;20464;-71
2024/04/16 09:55:12;;;;;;;3.70;1.23;;;17.90;29.20;;;;;;5489443;26;20565;-72
2024/04/16 09:57:38;;;;;;;4.30;1.40;;;17.70;29.80;;;;;;5489350;26;20742;-70
2024/04/16 10:00:09;;;;;;;4.00;0.90;;;17.90;30.90;;;;;;5489253;26;20449;-71
2024/04/16 10:02:38;;;;;;;2.70;0.83;;;18.00;31.30;;;;;;5489340;26;20497;-71
2024/04/16 10:05:08;;;;;;;3.07;0.90;;;17.90;29.10;;;;;;5477707;26;20522;-71
2024/04/16 10:07:36;;;;;;;2.20;0.90;;;17.70;29.40;;;;;;5452480;26;20454;-71
2024/04/16 10:10:05;;;;;;;7.93;1.20;;;17.70;29.50;;;;;;5452845;26;20560;-71
2024/04/16 10:12:39;;;;;;;4.20;0.80;;;17.60;29.10;;;;;;5454991;26;20934;-70
2024/04/16 10:15:07;;;;;;;3.27;0.93;;;17.90;30.50;;;;;;5488538;26;20460;-71
2024/04/16 10:17:50;;;;;;;5.10;1.30;;;18.40;30.20;;;;;;5488802;26;20473;-71
2024/04/16 10:20:20;;;;;;;2.97;0.80;;;18.50;29.70;;;;;;5488397;26;20993;-72
2024/04/16 10:22:53;;;;;;;3.40;1.00;;;18.80;28.60;;;;;;5488808;26;20834;-70
2024/04/16 10:25:26;;;;;;;3.10;0.90;;;18.90;27.50;;;;;;5489033;26;20447;-71
2024/04/16 10:28:02;;;;;;;2.80;1.20;;;19.00;27.50;;;;;;5488830;26;20466;-70
2024/04/16 10:30:29;;;;;;;2.40;0.83;;;18.90;27.20;;;;;;5489011;26;20457;-70
2024/04/16 10:32:59;;;;;;;2.60;0.87;;;18.60;27.20;;;;;;5488934;26;20851;-71
2024/04/16 10:35:26;;;;;;;4.73;1.00;;;18.50;26.90;;;;;;5488904;26;20498;-70
2024/04/16 10:38:02;;;;;;;3.23;0.80;;;18.30;27.30;;;;;;5488790;26;20445;-70
2024/04/16 10:40:29;;;;;;;5.83;0.73;;;18.20;26.70;;;;;;5492765;26;20443;-70
2024/04/16 10:43:02;;;;;;;2.67;0.83;;;18.30;27.40;;;;;;5492512;26;20521;-70
2024/04/16 10:45:28;;;;;;;8.30;1.20;;;18.50;27.50;;;;;;5492500;26;20453;-70
2024/04/16 10:47:58;;;;;;;3.40;1.17;;;18.60;27.00;;;;;;5492355;26;20466;-71
2024/04/16 10:50:25;;;;;;;2.50;1.03;;;18.80;28.20;;;;;;5492816;26;20441;-70
2024/04/16 10:52:53;;;;;;;2.93;0.97;;;18.90;26.50;;;;;;5492173;26;20456;-70
2024/04/16 10:55:20;;;;;;;2.63;1.20;;;18.80;27.40;;;;;;5492301;26;20491;-70
2024/04/16 10:58:14;;;;;;;4.90;0.90;;;18.80;26.70;;;;;;5490717;26;20584;-70
2024/04/16 11:00:41;;;;;;;3.07;0.90;;;18.80;26.00;;;;;;5490921;26;20463;-70
2024/04/16 11:03:12;;;;;;;2.43;1.10;;;19.00;27.90;;;;;;5491464;26;20498;-70
2024/04/16 11:05:40;;;;;;;4.53;1.80;;;19.30;27.30;;;;;;5490063;26;20462;-71
2024/04/16 11:08:09;;;;;;;7.67;0.97;;;19.40;25.20;;;;;;5490182;26;20522;-70
2024/04/16 11:10:36;;;;;;;2.93;0.77;;;19.40;25.30;;;;;;5455839;26;20448;-70
2024/04/16 11:13:05;;;;;;;2.73;1.00;;;19.30;25.30;;;;;;5475254;26;20458;-70
2024/04/16 11:15:35;;;;;;;3.27;0.80;;;19.20;25.90;;;;;;5491343;26;20470;-70
2024/04/16 11:18:04;;;;;;;3.70;1.10;;;19.20;26.50;;;;;;5491896;26;20499;-70
2024/04/16 11:20:30;;;;;;;2.63;0.90;;;19.30;26.20;;;;;;5491489;26;20463;-70
2024/04/16 11:23:00;;;;;;;3.00;1.67;;;19.40;24.60;;;;;;5491308;26;20785;-70
2024/04/16 11:25:30;;;;;;;3.10;1.10;;;19.10;23.50;;;;;;5491246;26;20518;-70
2024/04/16 11:27:59;;;;;;;3.17;0.93;;;19.00;25.00;;;;;;5491098;26;20467;-70
2024/04/16 11:30:25;;;;;;;2.90;1.10;;;18.90;24.00;;;;;;5490468;26;20459;-70
2024/04/16 11:32:56;;;;;;;3.00;1.10;;;18.70;25.00;;;;;;5491641;26;20454;-70
2024/04/16 11:35:23;;;;;;;2.80;0.80;;;18.60;25.00;;;;;;5491737;26;20454;-71
2024/04/16 11:37:53;;;;;;;2.47;0.80;;;18.60;24.60;;;;;;5491613;26;20454;-71
2024/04/16 11:40:19;;;;;;;2.00;0.77;;;18.70;25.20;;;;;;5491563;26;20470;-70
2024/04/16 11:42:48;;;;;;;2.53;1.10;;;18.70;25.20;;;;;;5491976;26;20454;-70
2024/04/16 11:45:14;;;;;;;2.70;1.00;;;18.40;24.30;;;;;;5491724;26;20446;-70
2024/04/16 11:47:42;;;;;;;2.10;0.73;;;18.20;24.10;;;;;;5490278;26;20521;-71
2024/04/16 11:50:12;;;;;;;2.63;0.80;;;18.00;24.00;;;;;;5490115;26;20835;-70
2024/04/16 11:52:41;;;;;;;2.10;0.60;;;18.00;26.70;;;;;;5491303;26;20459;-71
2024/04/16 11:55:07;;;;;;;4.00;0.90;;;18.30;27.20;;;;;;5491300;26;20762;-70
2024/04/16 11:57:35;;;;;;;2.70;1.00;;;18.60;25.80;;;;;;5491664;26;20522;-70
2024/04/16 12:00:01;;;;;;;2.00;0.60;;;18.60;25.30;;;;;;5492193;26;20459;-71
2024/04/16 12:02:31;;;;;;;3.37;1.10;;;18.50;24.20;;;;;;5491451;26;20925;-70
2024/04/16 12:04:57;;;;;;;2.07;0.63;;;18.50;25.20;;;;;;5491435;26;20454;-70
2024/04/16 12:07:28;;;;;;;3.10;0.70;;;18.70;25.80;;;;;;5491133;26;20650;-71
2024/04/16 12:09:54;;;;;;;5.10;1.07;;;18.70;24.00;;;;;;5491115;26;20455;-71
2024/04/16 12:12:23;;;;;;;7.50;0.90;;;18.70;25.10;;;;;;5491022;26;20439;-71
2024/04/16 12:14:49;;;;;;;2.40;0.90;;;18.80;24.10;;;;;;5491292;26;20489;-70
2024/04/16 12:17:18;;;;;;;2.30;0.80;;;18.70;24.30;;;;;;5491031;26;20506;-71
2024/04/16 12:19:44;;;;;;;2.80;0.90;;;18.60;24.20;;;;;;5490970;26;20458;-71
2024/04/16 12:22:12;;;;;;;6.50;1.10;;;18.50;24.10;;;;;;5490789;26;20499;-71
2024/04/16 12:24:41;;;;;;;2.33;0.70;;;18.50;26.80;;;;;;5490880;26;20507;-71
2024/04/16 12:27:10;;;;;;;5.13;1.20;;;18.50;24.80;;;;;;5491062;26;20488;-71
2024/04/16 12:29:36;;;;;;;4.93;0.87;;;18.30;25.10;;;;;;5490922;26;20492;-71
2024/04/16 12:32:04;;;;;;;4.40;0.83;;;18.10;24.80;;;;;;5490839;26;20458;-71
2024/04/16 12:34:30;;;;;;;3.23;0.80;;;18.00;25.10;;;;;;5490723;26;20972;-71
2024/04/16 12:36:59;;;;;;;2.13;0.73;;;17.90;26.20;;;;;;5490717;26;20503;-71
2024/04/16 12:39:25;;;;;;;5.30;1.93;;;17.80;26.00;;;;;;5491387;26;20451;-71
2024/04/16 12:41:59;;;;;;;4.10;1.13;;;17.70;25.30;;;;;;5490827;26;20507;-71
2024/04/16 12:44:25;;;;;;;5.10;0.80;;;17.60;26.20;;;;;;5490451;26;20469;-71
2024/04/16 12:46:54;;;;;;;2.83;0.93;;;17.50;26.90;;;;;;5490835;26;20505;-71
2024/04/16 12:49:23;;;;;;;3.00;1.00;;;17.20;26.60;;;;;;5490429;26;20454;-71
2024/04/16 12:51:51;;;;;;;5.57;1.60;;;17.10;26.50;;;;;;5490477;26;20453;-71
2024/04/16 12:54:18;;;;;;;4.83;1.40;;;17.10;27.20;;;;;;5490692;26;20498;-72
2024/04/16 12:56:48;;;;;;;3.43;1.10;;;17.10;26.90;;;;;;5490794;26;20987;-71
2024/04/16 12:59:17;;;;;;;4.00;0.90;;;17.00;27.30;;;;;;5490361;26;20500;-71
2024/04/16 13:01:45;;;;;;;3.13;0.80;;;16.90;27.50;;;;;;5488840;26;20464;-71
2024/04/16 13:04:11;;;;;;;5.17;1.17;;;16.80;27.00;;;;;;5490111;26;20448;-71